createdAt,value
2023-03-21T00:10:04.820Z,98554.98
2023-03-21T00:20:15.480Z,98547.03
2023-03-21T00:30:21.433Z,98536.59
2023-03-21T00:40:35.052Z,98527.90
2023-03-21T00:50:45.424Z,98525.84
2023-03-21T01:00:52.503Z,98515.70
2023-03-21T01:11:02.365Z,98513.30
2023-03-21T01:21:07.970Z,98511.52
2023-03-21T01:31:15.393Z,98506.77
2023-03-21T01:41:22.045Z,98504.72
2023-03-21T01:51:27.803Z,98503.89
2023-03-21T02:01:35.073Z,98497.58
2023-03-21T02:11:46.758Z,98498.74
2023-03-21T02:22:08.512Z,98497.39
2023-03-21T02:32:36.521Z,98500.39
2023-03-21T02:42:59.398Z,98492.19
2023-03-21T02:53:12.563Z,98496.56
2023-03-21T03:03:33.075Z,98489.41
2023-03-21T03:13:42.502Z,98489.38
2023-03-21T03:23:50.883Z,98490.02
2023-03-21T03:33:59.634Z,98489.61
2023-03-21T03:44:06.871Z,98489.64
2023-03-21T03:54:15.811Z,98488.92
2023-03-21T04:04:29.768Z,98488.31
2023-03-21T04:14:44.456Z,98489.80
2023-03-21T04:24:52.018Z,98480.68
2023-03-21T04:34:59.001Z,98469.67
2023-03-21T04:45:07.017Z,98476.59
2023-03-21T04:55:14.834Z,98482.20
2023-03-21T05:05:19.711Z,98483.27
2023-03-21T05:15:26.898Z,98467.80
2023-03-21T05:25:34.589Z,98473.30
2023-03-21T05:35:41.716Z,98484.55
2023-03-21T05:45:48.690Z,98488.89
2023-03-21T05:55:56.311Z,98492.66
2023-03-21T06:06:03.050Z,98499.63
2023-03-21T06:16:11.078Z,98504.36
2023-03-21T06:26:19.992Z,98507.89
2023-03-21T06:36:27.084Z,98519.45
2023-03-21T06:46:34.438Z,98519.50
2023-03-21T06:56:42.066Z,98522.61
2023-03-21T07:06:49.158Z,98530.09
2023-03-21T07:16:57.002Z,98534.95
2023-03-21T07:27:04.043Z,98542.58
2023-03-21T07:37:11.327Z,98546.56
2023-03-21T07:47:18.495Z,98560.89
2023-03-21T07:57:24.762Z,98569.98
2023-03-21T08:07:34.164Z,98574.98
2023-03-21T08:17:40.092Z,98576.29
2023-03-21T08:27:49.279Z,98580.64
2023-03-21T08:37:56.307Z,98582.90
2023-03-21T08:48:03.865Z,98585.35
2023-03-21T08:58:09.844Z,98583.44
2023-03-21T09:08:17.136Z,98585.06
2023-03-21T09:18:44.459Z,98589.63
2023-03-21T09:28:53.529Z,98592.61
2023-03-21T09:39:01.125Z,98594.23
2023-03-21T09:49:13.187Z,98608.45
2023-03-21T09:59:21.042Z,98609.45
2023-03-21T10:09:32.725Z,98609.92
2023-03-21T10:19:39.908Z,98614.05
2023-03-21T10:29:47.816Z,98619.67
2023-03-21T10:39:56.805Z,98619.34
2023-03-21T10:50:08.073Z,98619.59
2023-03-21T11:00:23.172Z,98617.83
2023-03-21T11:10:30.854Z,98615.41
2023-03-21T11:20:44.752Z,98614.19
2023-03-21T11:30:54.337Z,98610.27
2023-03-21T11:41:03.210Z,98606.70
2023-03-21T11:51:14.491Z,98604.49
2023-03-21T12:01:20.375Z,98603.33
2023-03-21T12:11:25.578Z,98601.11
2023-03-21T12:21:32.706Z,98596.09
2023-03-21T12:31:41.348Z,98590.52
2023-03-21T12:41:54.867Z,98575.70
2023-03-21T12:52:05.795Z,98567.30
2023-03-21T13:02:23.443Z,98563.83
2023-03-21T13:12:34.159Z,98563.34
2023-03-21T13:22:41.379Z,98562.05
2023-03-21T13:32:50.618Z,98554.98
2023-03-21T13:42:57.376Z,98546.55
2023-03-21T13:53:20.412Z,98546.52
2023-03-21T14:03:31.591Z,98547.25
2023-03-21T14:13:50.923Z,98545.27
2023-03-21T14:24:00.710Z,98539.79
2023-03-21T14:34:11.278Z,98536.39
2023-03-21T14:44:22.758Z,98527.40
2023-03-21T14:54:31.488Z,98522.90
2023-03-21T15:04:38.684Z,98520.73
2023-03-21T15:14:46.440Z,98524.90
2023-03-21T15:24:59.855Z,98524.36
2023-03-21T15:35:06.047Z,98518.59
2023-03-21T15:45:24.728Z,98514.69
2023-03-21T15:55:29.672Z,98506.77
2023-03-21T16:05:37.398Z,98508.98
2023-03-21T16:15:45.781Z,98508.67
2023-03-21T16:25:52.655Z,98510.61
2023-03-21T16:36:00.960Z,98509.69
2023-03-21T16:46:06.307Z,98515.67
2023-03-21T16:56:14.711Z,98514.98
2023-03-21T17:06:24.608Z,98524.38
2023-03-21T17:16:32.175Z,98535.92
2023-03-21T17:26:39.741Z,98537.27
2023-03-21T17:36:49.110Z,98537.05
2023-03-21T17:46:56.273Z,98542.13
2023-03-21T17:57:03.601Z,98554.41
2023-03-21T18:07:14.014Z,98555.08
2023-03-21T18:17:23.864Z,98555.42
2023-03-21T18:27:32.639Z,98560.49
2023-03-21T18:37:39.851Z,98566.71
2023-03-21T18:47:47.348Z,98563.83
2023-03-21T18:57:54.903Z,98559.23
2023-03-21T19:08:01.605Z,98552.94
2023-03-21T19:28:32.909Z,98571.11
2023-03-21T19:38:41.360Z,98569.95
2023-03-21T19:48:50.349Z,98571.59
2023-03-21T19:58:57.896Z,98575.55
2023-03-21T20:09:47.222Z,98565.90
2023-03-21T20:19:32.450Z,98564.36
2023-03-21T20:30:10.130Z,98559.45
2023-03-21T20:40:10.590Z,98556.91
2023-03-21T20:50:22.044Z,98557.86
2023-03-21T21:00:30.171Z,98556.92
2023-03-21T21:11:04.058Z,98549.73
2023-03-21T21:21:04.597Z,98544.21
2023-03-21T21:31:16.536Z,98542.02
2023-03-21T21:41:24.340Z,98543.56
2023-03-21T21:51:34.329Z,98538.58
2023-03-21T22:01:42.588Z,98533.27
2023-03-21T22:11:50.100Z,98530.61
2023-03-21T22:21:57.332Z,98531.77
2023-03-21T22:32:04.662Z,98536.55
2023-03-21T22:42:12.282Z,98536.02
2023-03-21T22:52:19.631Z,98531.73
2023-03-21T23:02:25.955Z,98510.70
2023-03-21T23:12:33.066Z,98497.19
2023-03-21T23:22:40.874Z,98497.70
2023-03-21T23:32:48.082Z,98492.55
2023-03-21T23:42:56.619Z,98498.41
2023-03-21T23:53:03.147Z,98499.64
